Time;durP1;ratioP1;P1;durP2;ratioP2;P2;SDS_P1;SDS_P2;PMS_P1;PMS_P2;Temp;Humidity;BMP_temperature;BMP_pressure;BME280_temperature;BME280_humidity;BME280_pressure;Samples;Min_cycle;Max_cycle;Signal;HPM_P1;HPM_P2
2022/07/07 00:00:00;;;;;;;2.15;1.13;;;13.80;78.70;;;;;;5038652;28;20032;-81
2022/07/07 00:02:26;;;;;;;2.28;0.43;;;13.90;79.10;;;;;;5040096;28;20132;-83
2022/07/07 00:04:52;;;;;;;1.65;0.60;;;13.80;79.50;;;;;;5039562;28;20115;-82
2022/07/07 00:07:19;;;;;;;1.33;0.50;;;13.90;80.20;;;;;;5052532;28;20703;-82
2022/07/07 00:09:45;;;;;;;1.00;0.63;;;13.80;79.30;;;;;;5052139;28;20033;-82
2022/07/07 00:12:11;;;;;;;1.17;0.70;;;13.80;79.50;;;;;;5038501;28;20090;-82
2022/07/07 00:14:36;;;;;;;1.00;0.50;;;13.80;79.30;;;;;;5055801;28;20031;-82
2022/07/07 00:17:03;;;;;;;2.25;0.60;;;13.80;79.40;;;;;;5026219;28;20037;-82
2022/07/07 00:19:29;;;;;;;0.68;0.40;;;13.70;79.20;;;;;;5026505;28;20071;-81
2022/07/07 00:21:55;;;;;;;3.13;0.52;;;13.70;78.80;;;;;;5026781;28;20104;-82
2022/07/07 00:24:20;;;;;;;2.00;0.50;;;13.70;79.30;;;;;;5052192;28;20060;-82
2022/07/07 00:26:46;;;;;;;1.25;0.60;;;13.70;79.90;;;;;;5022159;28;20041;-82
2022/07/07 00:29:12;;;;;;;0.40;0.40;;;13.70;80.10;;;;;;5038008;28;20160;-82
2022/07/07 00:31:38;;;;;;;0.85;0.57;;;13.70;80.50;;;;;;5039923;28;20069;-83
2022/07/07 00:34:04;;;;;;;1.15;0.70;;;13.70;80.80;;;;;;5063704;28;20036;-82
2022/07/07 00:36:30;;;;;;;0.60;0.60;;;13.70;81.70;;;;;;5037898;28;20606;-81
2022/07/07 00:38:55;;;;;;;0.52;0.52;;;13.70;82.50;;;;;;5034279;28;20040;-82
2022/07/07 00:41:21;;;;;;;1.95;0.80;;;13.70;81.40;;;;;;5034775;28;20036;-82
2022/07/07 00:43:47;;;;;;;0.68;0.52;;;13.70;82.70;;;;;;5055071;28;20052;-82
2022/07/07 00:46:13;;;;;;;2.45;0.73;;;13.80;82.90;;;;;;5072768;28;20115;-81
2022/07/07 00:48:41;;;;;;;1.38;0.60;;;13.80;83.70;;;;;;5038005;28;20059;-82
2022/07/07 00:51:10;;;;;;;1.27;0.82;;;13.80;83.40;;;;;;5054499;28;20037;-82
2022/07/07 00:53:37;;;;;;;1.10;0.65;;;13.80;82.90;;;;;;5053393;28;20094;-82
2022/07/07 00:56:03;;;;;;;1.45;0.70;;;13.90;83.70;;;;;;5038165;28;20037;-82
2022/07/07 00:58:29;;;;;;;1.48;0.50;;;13.90;82.50;;;;;;5052544;28;20021;-82
2022/07/07 01:00:55;;;;;;;1.73;0.70;;;13.90;82.80;;;;;;5042207;28;20406;-82
2022/07/07 01:03:21;;;;;;;1.27;0.88;;;13.90;82.60;;;;;;5036350;28;20054;-81
2022/07/07 01:05:48;;;;;;;3.58;0.82;;;13.90;83.20;;;;;;5021191;28;20033;-82
2022/07/07 01:08:15;;;;;;;1.73;0.68;;;13.90;83.20;;;;;;5037243;28;20153;-82
2022/07/07 01:10:45;;;;;;;0.82;0.70;;;13.90;83.30;;;;;;5036824;28;20055;-82
2022/07/07 01:13:11;;;;;;;4.35;0.80;;;13.90;84.90;;;;;;5053464;28;20040;-82
2022/07/07 01:15:37;;;;;;;3.20;0.70;;;13.90;85.40;;;;;;5036695;28;20479;-83
2022/07/07 01:18:03;;;;;;;1.45;0.63;;;13.80;88.30;;;;;;5053351;28;20081;-83
2022/07/07 01:20:30;;;;;;;2.42;0.70;;;13.80;87.50;;;;;;5020640;28;20035;-82
2022/07/07 01:22:56;;;;;;;0.80;0.80;;;13.70;89.70;;;;;;5036323;28;20059;-82
2022/07/07 01:25:23;;;;;;;0.63;0.60;;;13.70;91.30;;;;;;5036934;28;20032;-84
2022/07/07 01:27:49;;;;;;;1.10;0.80;;;13.70;91.50;;;;;;5052928;28;20079;-83
2022/07/07 01:30:17;;;;;;;0.70;0.70;;;13.60;91.50;;;;;;5053054;28;20033;-83
2022/07/07 01:32:43;;;;;;;0.80;0.80;;;13.60;91.50;;;;;;5036361;28;20036;-85
2022/07/07 01:35:10;;;;;;;0.85;0.80;;;13.60;91.90;;;;;;5053579;28;20028;-82
2022/07/07 01:37:36;;;;;;;0.68;0.63;;;13.60;92.50;;;;;;5020018;28;20033;-84
2022/07/07 01:40:03;;;;;;;0.88;0.77;;;13.50;91.90;;;;;;5051949;28;20024;-82
2022/07/07 01:42:28;;;;;;;0.80;0.70;;;13.50;91.70;;;;;;5036025;28;20039;-82
2022/07/07 01:44:54;;;;;;;1.50;0.77;;;13.40;92.00;;;;;;5036466;28;20029;-83
2022/07/07 01:47:22;;;;;;;1.48;0.80;;;13.40;92.30;;;;;;5019837;28;20128;-84
2022/07/07 01:49:48;;;;;;;0.45;0.45;;;13.40;93.00;;;;;;5032736;28;20033;-82
2022/07/07 01:52:14;;;;;;;1.10;0.60;;;13.40;93.50;;;;;;5019724;28;20064;-83
2022/07/07 01:54:40;;;;;;;0.80;0.80;;;13.40;94.10;;;;;;5036087;28;20039;-84
2022/07/07 01:57:07;;;;;;;0.95;0.80;;;13.40;94.30;;;;;;5035864;28;20032;-82
2022/07/07 01:59:33;;;;;;;0.77;0.70;;;13.40;93.90;;;;;;5036175;28;20645;-82
2022/07/07 02:01:59;;;;;;;2.15;0.60;;;13.40;93.90;;;;;;5019595;28;20933;-83
2022/07/07 02:04:26;;;;;;;1.15;0.60;;;13.40;94.10;;;;;;5021672;28;20028;-82
2022/07/07 02:06:52;;;;;;;1.00;0.60;;;13.40;94.70;;;;;;5053142;28;20526;-83
2022/07/07 02:09:18;;;;;;;1.63;0.70;;;13.40;95.30;;;;;;5052966;28;20503;-83
2022/07/07 02:11:44;;;;;;;1.95;0.82;;;13.50;96.00;;;;;;5056432;28;20082;-83
2022/07/07 02:14:10;;;;;;;1.20;0.82;;;13.50;96.00;;;;;;5056393;28;20033;-82
2022/07/07 02:16:36;;;;;;;0.70;0.60;;;13.50;96.10;;;;;;5056449;28;20035;-82
2022/07/07 02:19:04;;;;;;;0.85;0.80;;;13.50;95.50;;;;;;5074022;28;20031;-82
2022/07/07 02:21:30;;;;;;;0.80;0.60;;;13.50;95.70;;;;;;5073145;28;20102;-83
2022/07/07 02:23:57;;;;;;;1.77;0.60;;;13.50;97.20;;;;;;5056506;28;20483;-82
2022/07/07 02:26:24;;;;;;;2.40;0.77;;;13.50;97.90;;;;;;5038107;28;20033;-83
2022/07/07 02:28:49;;;;;;;2.85;0.70;;;13.50;98.30;;;;;;5056239;28;20032;-83
2022/07/07 02:31:16;;;;;;;2.30;0.82;;;13.50;98.90;;;;;;5039484;28;20029;-83
2022/07/07 02:33:42;;;;;;;0.55;0.55;;;13.50;99.50;;;;;;5056247;28;20032;-82
2022/07/07 02:36:08;;;;;;;0.75;0.70;;;13.50;98.90;;;;;;5039368;28;20491;-83
2022/07/07 02:38:36;;;;;;;2.28;0.80;;;13.50;98.50;;;;;;5039009;28;20108;-82
2022/07/07 02:41:02;;;;;;;1.25;0.90;;;13.50;98.60;;;;;;5052725;28;20039;-83
2022/07/07 02:43:28;;;;;;;1.20;1.10;;;13.50;98.00;;;;;;5036591;28;20029;-83
2022/07/07 02:45:54;;;;;;;1.48;0.90;;;13.50;98.60;;;;;;5056523;28;20474;-82
2022/07/07 02:48:22;;;;;;;0.73;0.73;;;13.50;98.20;;;;;;5055992;28;20487;-83
2022/07/07 02:50:48;;;;;;;1.48;0.70;;;13.60;98.90;;;;;;5055599;28;20025;-83
2022/07/07 02:53:15;;;;;;;0.70;0.70;;;13.50;98.60;;;;;;5023105;28;20441;-82
2022/07/07 02:55:42;;;;;;;1.23;0.80;;;13.60;98.70;;;;;;5039091;28;20036;-81
2022/07/07 02:58:09;;;;;;;2.40;0.60;;;13.60;98.20;;;;;;5006282;28;20625;-82
2022/07/07 03:00:36;;;;;;;2.28;0.80;;;13.60;98.10;;;;;;5052046;28;20029;-82
2022/07/07 03:03:07;;;;;;;1.13;0.77;;;13.60;97.60;;;;;;5036267;28;20029;-82
2022/07/07 03:05:34;;;;;;;0.98;0.80;;;13.60;96.80;;;;;;5055263;28;20356;-81
2022/07/07 03:08:00;;;;;;;1.42;0.90;;;13.60;96.90;;;;;;5055472;28;20013;-82
2022/07/07 03:10:27;;;;;;;1.38;0.70;;;13.60;95.90;;;;;;5038973;28;20093;-83
2022/07/07 03:12:53;;;;;;;3.33;0.95;;;13.60;95.90;;;;;;5055454;28;20067;-82
2022/07/07 03:15:19;;;;;;;1.08;0.50;;;13.60;95.90;;;;;;5038796;28;20048;-83
2022/07/07 03:17:46;;;;;;;0.57;0.57;;;13.70;95.20;;;;;;5035883;28;20063;-83
2022/07/07 03:20:13;;;;;;;3.08;0.63;;;13.70;95.00;;;;;;5021013;28;20032;-82
2022/07/07 03:22:40;;;;;;;1.25;0.73;;;13.70;94.50;;;;;;5036478;28;20037;-83
2022/07/07 03:25:07;;;;;;;1.45;0.68;;;13.80;93.50;;;;;;5033709;28;20186;-82
2022/07/07 03:27:34;;;;;;;0.60;0.60;;;13.80;93.50;;;;;;5054711;28;20093;-83
2022/07/07 03:30:00;;;;;;;1.08;0.60;;;13.80;93.30;;;;;;5003171;28;20037;-83
2022/07/07 03:32:26;;;;;;;1.85;0.50;;;13.80;93.70;;;;;;5051605;28;20041;-83
2022/07/07 03:34:52;;;;;;;0.60;0.60;;;13.80;93.60;;;;;;5037421;28;20044;-83
2022/07/07 03:37:18;;;;;;;0.73;0.73;;;13.90;93.40;;;;;;5021428;28;20033;-84
2022/07/07 03:39:44;;;;;;;4.97;0.70;;;13.90;93.00;;;;;;5038658;28;20036;-83
2022/07/07 03:42:10;;;;;;;2.47;0.70;;;13.90;92.90;;;;;;5035146;28;20039;-83
2022/07/07 03:44:35;;;;;;;1.05;0.65;;;13.90;92.90;;;;;;5028059;28;20119;-83
2022/07/07 03:47:02;;;;;;;0.45;0.45;;;13.90;92.80;;;;;;5038634;28;20575;-82
2022/07/07 03:49:28;;;;;;;3.40;0.80;;;13.90;92.50;;;;;;5038981;28;20119;-83
2022/07/07 03:51:53;;;;;;;0.50;0.50;;;13.90;93.40;;;;;;5039695;28;20124;-82
2022/07/07 03:54:19;;;;;;;1.88;0.60;;;13.90;93.30;;;;;;5022802;28;20028;-82
2022/07/07 03:56:45;;;;;;;2.78;0.60;;;13.90;93.60;;;;;;5068763;28;20068;-82
2022/07/07 03:59:10;;;;;;;1.92;0.70;;;14.00;93.90;;;;;;5035735;28;20044;-83
2022/07/07 04:01:36;;;;;;;0.65;0.57;;;13.90;93.60;;;;;;5039313;28;20035;-84
2022/07/07 04:04:04;;;;;;;1.20;0.80;;;13.90;93.30;;;;;;5020791;28;20499;-85
2022/07/07 04:06:31;;;;;;;0.50;0.50;;;14.00;93.40;;;;;;5030664;28;20475;-82
2022/07/07 04:08:58;;;;;;;0.47;0.47;;;14.00;93.10;;;;;;5039210;28;20057;-82
2022/07/07 04:11:24;;;;;;;0.60;0.52;;;14.00;92.50;;;;;;5052841;28;20067;-82
2022/07/07 04:13:49;;;;;;;3.13;0.77;;;14.00;92.10;;;;;;5040137;28;20076;-82
2022/07/07 04:16:15;;;;;;;0.68;0.68;;;14.00;91.90;;;;;;5072050;28;20044;-83
2022/07/07 04:18:41;;;;;;;3.28;0.70;;;14.00;92.40;;;;;;5055195;28;20044;-83
2022/07/07 04:21:07;;;;;;;1.88;0.80;;;14.00;92.30;;;;;;5038505;28;20035;-83
2022/07/07 04:23:33;;;;;;;2.17;0.95;;;14.10;92.10;;;;;;5047567;28;20045;-83
2022/07/07 04:25:58;;;;;;;0.60;0.60;;;14.10;93.70;;;;;;5042330;28;20029;-83
2022/07/07 04:28:24;;;;;;;0.50;0.50;;;14.10;94.90;;;;;;5004834;28;20029;-82
2022/07/07 04:30:50;;;;;;;0.80;0.80;;;14.00;95.80;;;;;;5003890;28;20121;-82
2022/07/07 04:33:16;;;;;;;1.42;0.80;;;14.00;96.60;;;;;;5019869;28;20554;-84
2022/07/07 04:35:41;;;;;;;1.20;1.10;;;13.90;97.10;;;;;;5025332;28;20597;-84
2022/07/07 04:38:07;;;;;;;0.93;0.93;;;13.80;97.30;;;;;;5018169;28;20045;-83
2022/07/07 04:40:36;;;;;;;2.65;0.90;;;13.70;97.70;;;;;;5038202;28;20064;-84
2022/07/07 04:43:01;;;;;;;0.80;0.70;;;13.70;98.50;;;;;;5038919;28;20025;-84
2022/07/07 04:45:28;;;;;;;1.52;0.80;;;13.70;99.30;;;;;;5038506;28;20451;-83
2022/07/07 04:47:54;;;;;;;2.22;0.70;;;13.60;99.10;;;;;;5067358;28;20040;-83
2022/07/07 04:50:19;;;;;;;2.10;0.95;;;13.60;99.30;;;;;;5037880;28;20052;-85
2022/07/07 04:52:45;;;;;;;1.67;0.73;;;13.60;98.50;;;;;;5021445;28;20088;-84
2022/07/07 04:55:11;;;;;;;1.13;0.82;;;13.60;99.30;;;;;;5035342;28;20045;-84
2022/07/07 04:57:37;;;;;;;1.92;1.00;;;13.60;99.90;;;;;;5055362;28;20062;-85
2022/07/07 05:00:03;;;;;;;1.15;1.05;;;13.60;99.90;;;;;;5039087;28;20132;-85
2022/07/07 05:02:29;;;;;;;1.02;0.98;;;13.60;99.90;;;;;;5052005;28;20050;-83
2022/07/07 05:04:56;;;;;;;1.73;1.00;;;13.60;99.90;;;;;;5040987;28;20033;-84
2022/07/07 05:07:22;;;;;;;3.30;1.00;;;13.60;99.90;;;;;;5038923;28;20036;-85
2022/07/07 05:09:48;;;;;;;1.05;0.90;;;13.60;99.90;;;;;;5054574;28;20029;-86
2022/07/07 05:12:14;;;;;;;2.05;0.95;;;13.60;99.90;;;;;;5034923;28;20068;-87
2022/07/07 05:14:41;;;;;;;0.93;0.90;;;13.50;99.90;;;;;;5038015;28;20036;-85
2022/07/07 05:17:07;;;;;;;0.90;0.90;;;13.50;99.90;;;;;;5037956;28;20036;-84
2022/07/07 05:19:33;;;;;;;1.85;1.00;;;13.50;99.90;;;;;;5035248;28;20487;-85
2022/07/07 05:21:58;;;;;;;0.93;0.93;;;13.50;99.90;;;;;;5026167;28;20037;-85
2022/07/07 05:24:24;;;;;;;1.10;1.00;;;13.50;99.90;;;;;;5014908;28;20029;-83
2022/07/07 05:26:50;;;;;;;1.20;1.10;;;13.50;99.90;;;;;;5023479;28;20514;-83
2022/07/07 05:29:15;;;;;;;1.88;0.88;;;13.50;99.90;;;;;;5034892;28;20028;-84
2022/07/07 05:31:41;;;;;;;3.35;1.13;;;13.60;99.90;;;;;;5036118;28;20025;-85
2022/07/07 05:34:07;;;;;;;1.42;1.05;;;13.60;99.90;;;;;;5041378;28;20040;-85
2022/07/07 05:36:34;;;;;;;1.45;0.93;;;13.60;99.90;;;;;;5027624;28;20032;-87
2022/07/07 05:39:00;;;;;;;1.23;1.00;;;13.70;99.90;;;;;;5034746;28;20048;-83
2022/07/07 05:41:27;;;;;;;2.00;1.00;;;13.60;99.90;;;;;;5012686;28;20029;-86
2022/07/07 05:43:53;;;;;;;0.82;0.80;;;13.60;99.90;;;;;;5030788;28;20033;-85
2022/07/07 05:46:18;;;;;;;1.65;1.38;;;13.70;99.90;;;;;;5031546;28;20115;-86
2022/07/07 05:48:44;;;;;;;1.17;1.00;;;13.70;99.90;;;;;;5033776;28;20749;-85
2022/07/07 05:51:10;;;;;;;1.20;1.10;;;13.70;99.90;;;;;;5035512;28;20032;-87
2022/07/07 05:53:36;;;;;;;1.67;1.30;;;13.70;99.90;;;;;;5019173;28;20449;-86
2022/07/07 05:56:03;;;;;;;1.40;1.00;;;13.70;99.90;;;;;;5050499;28;20032;-85
2022/07/07 05:58:28;;;;;;;2.83;1.13;;;13.60;99.90;;;;;;5070945;28;20029;-86
2022/07/07 06:00:54;;;;;;;2.40;1.48;;;13.70;99.90;;;;;;5002222;28;20108;-85
2022/07/07 06:03:20;;;;;;;2.22;1.55;;;13.70;99.90;;;;;;5045554;28;20040;-87
2022/07/07 06:05:46;;;;;;;3.00;1.38;;;13.70;99.90;;;;;;5036215;28;20029;-85
2022/07/07 06:08:12;;;;;;;1.88;1.35;;;13.70;99.90;;;;;;5019515;28;20412;-85
2022/07/07 06:10:38;;;;;;;2.75;1.40;;;13.70;99.90;;;;;;5019741;28;20059;-84
2022/07/07 06:13:04;;;;;;;3.60;1.52;;;13.70;99.90;;;;;;5033322;28;20033;-85
2022/07/07 06:15:33;;;;;;;2.47;1.40;;;13.70;99.90;;;;;;5040637;28;20029;-85
2022/07/07 06:18:05;;;;;;;1.52;1.30;;;13.70;99.90;;;;;;5020999;28;20037;-86
2022/07/07 06:20:31;;;;;;;2.28;1.13;;;13.80;99.90;;;;;;5035706;28;20127;-85
2022/07/07 06:22:58;;;;;;;1.80;1.38;;;13.70;99.90;;;;;;5035274;28;20490;-84
2022/07/07 06:25:24;;;;;;;1.40;1.30;;;13.70;99.90;;;;;;5036060;28;20692;-85
2022/07/07 06:27:50;;;;;;;1.85;1.73;;;13.80;99.90;;;;;;5052932;28;20036;-87
2022/07/07 06:30:15;;;;;;;2.10;1.25;;;13.80;99.90;;;;;;5035128;28;20086;-85
2022/07/07 06:32:41;;;;;;;3.58;1.50;;;13.80;99.90;;;;;;5016331;28;20506;-85
2022/07/07 06:35:08;;;;;;;2.33;1.55;;;13.90;99.90;;;;;;5016966;28;20434;-88
2022/07/07 06:37:34;;;;;;;1.58;1.48;;;13.90;99.90;;;;;;5052880;28;20036;-87
2022/07/07 06:40:00;;;;;;;1.52;1.42;;;14.00;99.90;;;;;;5035371;28;20032;-84
2022/07/07 06:42:26;;;;;;;5.97;1.75;;;14.10;99.90;;;;;;5052239;28;20036;-86
2022/07/07 06:45:01;;;;;;;2.30;1.60;;;14.10;99.90;;;;;;5006732;28;20384;-86
2022/07/07 06:47:27;;;;;;;2.20;1.80;;;14.10;99.90;;;;;;5032186;28;20048;-86
2022/07/07 06:49:53;;;;;;;2.85;1.83;;;14.20;99.90;;;;;;5023380;28;20520;-84
2022/07/07 06:52:19;;;;;;;3.03;2.17;;;14.20;99.90;;;;;;5037124;28;20702;-85
2022/07/07 06:54:45;;;;;;;2.85;1.90;;;14.30;99.90;;;;;;5040061;28;20040;-85
2022/07/07 06:57:11;;;;;;;1.90;1.60;;;14.30;99.90;;;;;;5038901;28;20037;-85
2022/07/07 06:59:37;;;;;;;3.60;1.45;;;14.30;99.90;;;;;;5022570;28;20093;-84
2022/07/07 07:02:03;;;;;;;2.40;1.80;;;14.30;99.90;;;;;;5038708;28;20044;-85
2022/07/07 07:04:29;;;;;;;2.70;1.60;;;14.30;99.90;;;;;;5039518;28;20051;-86
2022/07/07 07:06:54;;;;;;;1.92;1.60;;;14.30;99.90;;;;;;5019737;28;20041;-87
2022/07/07 07:09:20;;;;;;;3.13;1.48;;;14.30;99.90;;;;;;5019236;28;20033;-87
2022/07/07 07:11:48;;;;;;;2.17;1.70;;;14.30;99.90;;;;;;5010402;28;20047;-85
2022/07/07 07:14:13;;;;;;;1.80;1.70;;;14.30;99.90;;;;;;5019507;28;20066;-85
2022/07/07 07:16:39;;;;;;;1.63;1.52;;;14.40;99.90;;;;;;5024528;28;20041;-87
2022/07/07 07:19:08;;;;;;;1.63;1.52;;;14.40;99.90;;;;;;5055900;28;20032;-86
2022/07/07 07:21:34;;;;;;;2.03;1.60;;;14.40;99.90;;;;;;5038669;28;20144;-85
2022/07/07 07:23:59;;;;;;;2.45;1.77;;;14.40;99.90;;;;;;5038243;28;20032;-86
2022/07/07 07:26:25;;;;;;;2.45;1.90;;;14.40;99.90;;;;;;5018720;28;20037;-85
2022/07/07 07:28:52;;;;;;;2.55;2.10;;;14.40;99.90;;;;;;5018848;28;20037;-86
2022/07/07 07:31:18;;;;;;;2.20;1.98;;;14.40;99.90;;;;;;5031877;28;20654;-86
2022/07/07 07:33:44;;;;;;;2.92;2.17;;;14.50;99.90;;;;;;5034986;28;20047;-86
2022/07/07 07:36:10;;;;;;;2.85;1.90;;;14.50;99.90;;;;;;5043632;28;20029;-86
2022/07/07 07:38:37;;;;;;;3.15;2.85;;;14.50;99.90;;;;;;5035053;28;20040;-85
2022/07/07 07:41:04;;;;;;;6.35;5.60;;;14.60;99.90;;;;;;5035587;28;20483;-86
2022/07/07 07:43:30;;;;;;;5.43;3.20;;;14.60;99.90;;;;;;5054929;28;20047;-85
2022/07/07 07:45:56;;;;;;;3.00;2.20;;;14.70;99.90;;;;;;5038185;28;20033;-87
2022/07/07 07:48:22;;;;;;;3.15;1.95;;;14.80;99.90;;;;;;5037971;28;20040;-88
2022/07/07 07:50:47;;;;;;;3.00;2.30;;;14.80;99.90;;;;;;5021467;28;20036;-86
2022/07/07 07:53:13;;;;;;;2.15;1.98;;;14.80;99.90;;;;;;5021375;28;20037;-85
2022/07/07 07:55:39;;;;;;;2.70;2.25;;;14.80;99.90;;;;;;5038271;28;20025;-86
2022/07/07 07:58:05;;;;;;;5.40;2.33;;;14.70;99.90;;;;;;5021388;28;20123;-86
2022/07/07 08:00:31;;;;;;;2.35;2.13;;;14.60;99.90;;;;;;5005049;28;20124;-88
2022/07/07 08:02:57;;;;;;;4.85;2.35;;;14.60;99.90;;;;;;5036788;28;20035;-88
2022/07/07 08:05:23;;;;;;;4.40;2.45;;;14.50;99.90;;;;;;5038899;28;20055;-87
2022/07/07 08:07:48;;;;;;;3.63;2.67;;;14.50;99.90;;;;;;5022053;28;20035;-87
2022/07/07 08:10:15;;;;;;;3.35;3.05;;;14.50;99.90;;;;;;5037724;28;20380;-86
2022/07/07 08:12:43;;;;;;;4.18;3.20;;;14.40;99.90;;;;;;5038262;28;20101;-87
2022/07/07 08:15:09;;;;;;;4.72;3.05;;;14.30;99.90;;;;;;5034866;28;20435;-88
2022/07/07 08:17:35;;;;;;;4.15;3.22;;;14.20;99.90;;;;;;5054918;28;20037;-88
2022/07/07 08:20:02;;;;;;;3.40;3.10;;;14.10;99.90;;;;;;5037407;28;20132;-87
2022/07/07 08:22:28;;;;;;;3.28;2.97;;;14.10;99.90;;;;;;5054515;28;20123;-88
2022/07/07 08:24:53;;;;;;;4.60;3.08;;;14.00;99.90;;;;;;5038132;28;20056;-87
2022/07/07 08:27:19;;;;;;;3.03;2.72;;;13.90;99.90;;;;;;5036608;28;20056;-89
2022/07/07 08:29:45;;;;;;;3.25;2.90;;;13.80;99.90;;;;;;5036630;28;20033;-88
2022/07/07 08:32:12;;;;;;;4.50;3.10;;;13.80;99.90;;;;;;5010924;28;20111;-88
2022/07/07 08:34:39;;;;;;;3.67;3.38;;;13.80;99.90;;;;;;5038266;28;20033;-89
2022/07/07 08:37:05;;;;;;;4.03;3.58;;;13.80;99.90;;;;;;5038256;28;20056;-88
2022/07/07 08:39:31;;;;;;;5.28;4.45;;;13.70;99.90;;;;;;5034896;28;20040;-86
2022/07/07 08:41:58;;;;;;;4.47;3.65;;;13.70;99.90;;;;;;5037761;28;20119;-90
2022/07/07 08:44:24;;;;;;;5.15;3.75;;;13.60;99.90;;;;;;5054813;28;20028;-88
2022/07/07 08:46:51;;;;;;;6.38;4.90;;;13.60;99.90;;;;;;5037516;28;20109;-87
2022/07/07 08:49:17;;;;;;;6.28;4.15;;;13.60;99.90;;;;;;5053429;28;20033;-87
2022/07/07 08:51:44;;;;;;;4.22;3.80;;;13.60;99.90;;;;;;5042278;28;20055;-87
2022/07/07 08:54:11;;;;;;;7.53;4.38;;;13.50;99.90;;;;;;5054656;28;20035;-87
2022/07/07 08:56:38;;;;;;;6.25;4.20;;;13.60;99.90;;;;;;5037881;28;20029;-87
2022/07/07 08:59:10;;;;;;;4.85;4.22;;;13.60;99.90;;;;;;5036973;28;20406;-86
2022/07/07 09:01:36;;;;;;;5.50;4.72;;;13.60;99.90;;;;;;5026670;28;20033;-89
2022/07/07 09:04:03;;;;;;;4.57;4.00;;;13.60;99.90;;;;;;5034300;28;20119;-88
2022/07/07 09:06:30;;;;;;;5.07;4.28;;;13.60;99.90;;;;;;5045206;28;20081;-89
2022/07/07 09:08:56;;;;;;;7.47;4.60;;;13.60;99.90;;;;;;5053969;28;20048;-88
2022/07/07 09:11:27;;;;;;;5.53;4.13;;;13.60;99.90;;;;;;5050589;28;20040;-87
2022/07/07 09:14:15;;;;;;;8.32;5.03;;;13.60;99.90;;;;;;5030121;28;20040;-89
2022/07/07 09:16:43;;;;;;;6.45;4.55;;;13.60;99.90;;;;;;5045193;28;20375;-87
2022/07/07 09:19:19;;;;;;;4.28;3.88;;;13.70;99.90;;;;;;5033031;28;20468;-87
2022/07/07 09:21:45;;;;;;;6.75;4.50;;;13.70;99.90;;;;;;5050182;28;20082;-87
2022/07/07 09:24:12;;;;;;;5.03;4.53;;;13.70;99.90;;;;;;5017772;28;20037;-88
2022/07/07 09:26:44;;;;;;;5.43;4.93;;;13.80;99.90;;;;;;5057116;28;20025;-87
2022/07/07 09:29:17;;;;;;;5.65;5.03;;;13.80;99.90;;;;;;5050575;28;20043;-88
2022/07/07 09:31:53;;;;;;;6.05;4.72;;;13.80;99.90;;;;;;5034726;28;20040;-89
2022/07/07 09:34:21;;;;;;;6.40;3.85;;;13.80;99.90;;;;;;5032275;28;20040;-87
2022/07/07 09:39:42;;;;;;;6.53;4.78;;;13.80;99.90;;;;;;5049812;28;20032;-87
2022/07/07 09:42:27;;;;;;;5.28;4.38;;;13.90;99.90;;;;;;5033050;28;20119;-86
2022/07/07 09:45:03;;;;;;;5.68;5.13;;;13.90;99.90;;;;;;5033158;28;20029;-85
2022/07/07 09:47:30;;;;;;;7.13;4.65;;;13.80;99.90;;;;;;5046977;28;20292;-86
2022/07/07 09:50:09;;;;;;;7.90;5.25;;;13.80;99.90;;;;;;4997533;28;20037;-85
2022/07/07 09:52:38;;;;;;;8.27;5.57;;;13.80;99.90;;;;;;5013757;28;20119;-86
2022/07/07 09:55:08;;;;;;;7.22;5.50;;;13.70;99.90;;;;;;5020095;28;20057;-88
2022/07/07 09:57:35;;;;;;;5.75;5.20;;;13.70;99.90;;;;;;5050597;28;20131;-86
2022/07/07 10:00:01;;;;;;;7.70;6.22;;;13.80;99.90;;;;;;5029847;28;20029;-86
2022/07/07 10:02:29;;;;;;;6.13;5.53;;;13.70;99.90;;;;;;5049801;28;20773;-86
2022/07/07 10:05:01;;;;;;;8.40;6.32;;;13.60;99.90;;;;;;5030409;28;20037;-87
2022/07/07 10:07:30;;;;;;;8.05;5.82;;;13.60;99.90;;;;;;5032817;28;20243;-87
2022/07/07 10:10:01;;;;;;;8.82;6.20;;;13.60;99.90;;;;;;5034105;28;20055;-86
2022/07/07 10:12:29;;;;;;;6.15;5.55;;;13.60;99.90;;;;;;5032489;28;20043;-86
2022/07/07 10:15:03;;;;;;;5.95;5.35;;;13.50;99.90;;;;;;5032570;28;20159;-87
2022/07/07 10:17:30;;;;;;;6.30;5.57;;;13.60;99.90;;;;;;5048770;28;20041;-86
2022/07/07 10:19:57;;;;;;;6.07;5.30;;;13.60;99.90;;;;;;5041892;28;20815;-87
2022/07/07 10:22:27;;;;;;;6.28;5.22;;;13.60;99.90;;;;;;5038426;28;20097;-86
2022/07/07 10:25:02;;;;;;;7.22;6.03;;;13.60;99.90;;;;;;5058143;28;20028;-88
2022/07/07 10:27:28;;;;;;;7.32;5.72;;;13.70;99.90;;;;;;5039822;28;20036;-88
2022/07/07 10:29:57;;;;;;;9.65;7.10;;;13.70;99.90;;;;;;5020192;28;20029;-86
2022/07/07 10:32:40;;;;;;;6.72;5.78;;;13.70;99.90;;;;;;5021959;28;20037;-86
2022/07/07 10:35:15;;;;;;;7.70;5.68;;;13.70;99.90;;;;;;5034417;28;20055;-86
2022/07/07 10:37:52;;;;;;;8.38;5.82;;;13.80;99.90;;;;;;5026535;28;20101;-87
2022/07/07 10:40:28;;;;;;;7.15;5.88;;;13.80;99.90;;;;;;5037885;28;20040;-86
2022/07/07 10:42:56;;;;;;;;;;;13.80;99.90;;;;;;5054656;28;20736;-88
2022/07/07 10:45:23;;;;;;;8.55;6.57;;;13.90;99.90;;;;;;5071621;28;19914;-87
2022/07/07 10:47:48;;;;;;;7.80;6.72;;;14.00;99.90;;;;;;5017181;28;20041;-85
2022/07/07 10:50:29;;;;;;;8.45;6.70;;;14.10;99.90;;;;;;5066493;28;20134;-86
2022/07/07 10:52:56;;;;;;;9.43;7.18;;;14.10;99.90;;;;;;5041145;28;20132;-87
2022/07/07 10:55:52;;;;;;;10.25;6.60;;;14.20;99.90;;;;;;5055858;28;20044;-87
2022/07/07 10:58:43;;;;;;;8.07;6.32;;;14.20;99.90;;;;;;5031418;28;20037;-85
2022/07/07 11:01:09;;;;;;;9.82;6.72;;;14.30;99.90;;;;;;5062474;28;20075;-87
2022/07/07 11:03:38;;;;;;;7.13;6.35;;;14.30;99.90;;;;;;5037058;28;20025;-86
2022/07/07 11:06:05;;;;;;;9.45;6.10;;;14.30;99.90;;;;;;5049552;28;20032;-87
2022/07/07 11:08:39;;;;;;;9.02;6.03;;;14.30;99.90;;;;;;5028996;28;20033;-86
2022/07/07 11:11:05;;;;;;;6.75;5.65;;;14.40;99.90;;;;;;5034586;28;20029;-86
2022/07/07 11:13:36;;;;;;;8.52;7.18;;;14.50;99.90;;;;;;5050733;28;20056;-86
2022/07/07 11:16:16;;;;;;;7.00;6.30;;;14.70;99.90;;;;;;5032877;28;20025;-88
2022/07/07 11:18:48;;;;;;;8.65;6.55;;;14.80;99.90;;;;;;5053284;28;20110;-85
2022/07/07 11:21:13;;;;;;;6.45;5.63;;;14.90;99.90;;;;;;5035682;28;20017;-88
2022/07/07 11:23:47;;;;;;;8.18;6.45;;;14.90;99.90;;;;;;5039284;28;20029;-86
2022/07/07 11:26:20;;;;;;;7.22;5.68;;;14.90;99.90;;;;;;5041187;28;20041;-85
2022/07/07 11:28:46;;;;;;;6.97;6.25;;;14.80;99.90;;;;;;5048492;28;20028;-86
2022/07/07 11:31:13;;;;;;;6.78;5.63;;;14.80;99.90;;;;;;5048031;28;20067;-86
2022/07/07 11:33:39;;;;;;;8.10;6.60;;;14.80;99.90;;;;;;5053679;28;20433;-85
2022/07/07 11:36:24;;;;;;;8.15;6.47;;;14.80;99.90;;;;;;5051066;28;20096;-85
2022/07/07 11:38:55;;;;;;;7.93;7.13;;;14.90;99.90;;;;;;5057994;28;20028;-84
2022/07/07 11:41:35;;;;;;;7.88;6.40;;;14.90;99.90;;;;;;5080216;28;20119;-88
2022/07/07 11:44:01;;;;;;;7.38;5.53;;;14.90;99.90;;;;;;5052452;28;20487;-86
2022/07/07 11:46:27;;;;;;;7.47;6.25;;;14.90;99.90;;;;;;5030295;28;20025;-86
2022/07/07 11:48:53;;;;;;;8.90;6.18;;;14.90;99.90;;;;;;5038975;28;20647;-86
2022/07/07 11:51:28;;;;;;;8.10;6.03;;;14.90;99.90;;;;;;5022744;28;20518;-87
2022/07/07 11:54:00;;;;;;;7.70;6.03;;;14.80;99.90;;;;;;5041379;28;20039;-85
2022/07/07 11:56:33;;;;;;;7.75;6.90;;;14.80;99.90;;;;;;5038776;28;20127;-87
2022/07/07 11:59:00;;;;;;;6.60;5.57;;;14.70;99.90;;;;;;5038227;28;20044;-88
2022/07/07 12:01:38;;;;;;;10.18;7.03;;;14.70;99.90;;;;;;5039545;28;20020;-88
2022/07/07 12:04:20;;;;;;;8.77;7.03;;;14.60;99.90;;;;;;5052274;28;20040;-87
2022/07/07 12:06:47;;;;;;;9.90;6.82;;;14.60;99.90;;;;;;5049781;28;20036;-88
2022/07/07 12:09:13;;;;;;;8.60;6.80;;;14.60;99.90;;;;;;5038751;28;20047;-88
2022/07/07 12:11:41;;;;;;;7.53;6.57;;;14.70;99.90;;;;;;5035753;28;20033;-86
2022/07/07 12:14:09;;;;;;;9.35;6.90;;;14.70;99.90;;;;;;5041316;28;20514;-88
2022/07/07 12:16:46;;;;;;;9.27;7.15;;;14.70;99.90;;;;;;5033672;28;20116;-86
2022/07/07 12:19:12;;;;;;;8.85;6.65;;;14.70;99.90;;;;;;5034119;28;20033;-86
2022/07/07 12:21:47;;;;;;;9.60;7.00;;;14.70;99.90;;;;;;5044113;28;20039;-88
2022/07/07 12:24:23;;;;;;;10.50;7.22;;;14.70;99.90;;;;;;5037882;28;20036;-86
2022/07/07 12:26:51;;;;;;;10.18;7.78;;;14.80;99.90;;;;;;5038122;28;20046;-88
2022/07/07 12:29:22;;;;;;;9.75;7.15;;;14.90;99.90;;;;;;5037610;28;20029;-88
2022/07/07 12:31:50;;;;;;;9.13;7.28;;;14.90;99.90;;;;;;5044626;28;20192;-87
2022/07/07 12:34:20;;;;;;;10.93;7.38;;;15.00;99.90;;;;;;5025673;28;20032;-88
2022/07/07 12:36:48;;;;;;;8.07;6.55;;;15.10;99.90;;;;;;5062843;28;20090;-86
2022/07/07 12:39:14;;;;;;;8.93;6.93;;;15.20;99.90;;;;;;5033565;28;20025;-86
2022/07/07 12:41:41;;;;;;;8.90;7.43;;;15.20;99.90;;;;;;5037475;28;20037;-86
2022/07/07 12:44:18;;;;;;;8.18;7.28;;;15.40;99.90;;;;;;5034514;28;20029;-86
2022/07/07 12:46:45;;;;;;;11.43;7.43;;;15.20;99.90;;;;;;5034632;28;20033;-89
2022/07/07 12:49:12;;;;;;;10.50;7.38;;;15.30;99.90;;;;;;5034215;28;20830;-87
2022/07/07 12:51:41;;;;;;;10.88;8.05;;;15.30;99.90;;;;;;5031380;28;20059;-86